sensor_id;sensor_type;location;lat;lon;timestamp;P1;durP1;ratioP1;P2;durP2;ratioP2
79023;SDS011;70306;44.764;37.688;2023-12-04T00:00:08;27.27;;;5.72;;
79023;SDS011;70306;44.764;37.688;2023-12-04T00:01:14;19.23;;;6.90;;
79023;SDS011;70306;44.764;37.688;2023-12-04T00:02:16;16.48;;;6.28;;
79023;SDS011;70306;44.764;37.688;2023-12-04T00:03:18;17.38;;;7.57;;
79023;SDS011;70306;44.764;37.688;2023-12-04T00:06:48;22.50;;;6.32;;
79023;SDS011;70306;44.764;37.688;2023-12-04T00:07:49;17.35;;;5.57;;
79023;SDS011;70306;44.764;37.688;2023-12-04T00:08:51;17.40;;;4.72;;
79023;SDS011;70306;44.764;37.688;2023-12-04T00:10:39;17.88;;;5.50;;
79023;SDS011;70306;44.764;37.688;2023-12-04T00:11:51;18.88;;;5.50;;
79023;SDS011;70306;44.764;37.688;2023-12-04T00:12:53;15.90;;;5.13;;
79023;SDS011;70306;44.764;37.688;2023-12-04T00:13:55;21.25;;;5.00;;
79023;SDS011;70306;44.764;37.688;2023-12-04T00:14:57;17.63;;;4.47;;
79023;SDS011;70306;44.764;37.688;2023-12-04T00:17:46;19.48;;;6.30;;
79023;SDS011;70306;44.764;37.688;2023-12-04T00:18:48;12.65;;;5.00;;
79023;SDS011;70306;44.764;37.688;2023-12-04T00:19:50;20.92;;;5.75;;
79023;SDS011;70306;44.764;37.688;2023-12-04T00:20:51;11.20;;;4.82;;
79023;SDS011;70306;44.764;37.688;2023-12-04T00:21:53;29.45;;;6.10;;
79023;SDS011;70306;44.764;37.688;2023-12-04T00:22:55;27.20;;;5.25;;
79023;SDS011;70306;44.764;37.688;2023-12-04T00:23:57;14.70;;;5.10;;
79023;SDS011;70306;44.764;37.688;2023-12-04T00:24:58;21.30;;;5.78;;
79023;SDS011;70306;44.764;37.688;2023-12-04T00:26:00;19.30;;;4.53;;
79023;SDS011;70306;44.764;37.688;2023-12-04T00:27:03;15.18;;;6.80;;
79023;SDS011;70306;44.764;37.688;2023-12-04T00:28:05;23.15;;;5.10;;
79023;SDS011;70306;44.764;37.688;2023-12-04T00:29:07;21.20;;;6.97;;
79023;SDS011;70306;44.764;37.688;2023-12-04T00:30:09;24.77;;;6.53;;
79023;SDS011;70306;44.764;37.688;2023-12-04T00:31:11;53.53;;;7.90;;
79023;SDS011;70306;44.764;37.688;2023-12-04T00:32:12;31.02;;;6.40;;
79023;SDS011;70306;44.764;37.688;2023-12-04T00:33:14;39.53;;;5.95;;
79023;SDS011;70306;44.764;37.688;2023-12-04T00:34:16;21.90;;;5.05;;
79023;SDS011;70306;44.764;37.688;2023-12-04T00:35:18;19.58;;;5.35;;
79023;SDS011;70306;44.764;37.688;2023-12-04T00:36:20;21.45;;;5.38;;
79023;SDS011;70306;44.764;37.688;2023-12-04T00:37:21;21.17;;;5.65;;
79023;SDS011;70306;44.764;37.688;2023-12-04T00:38:23;30.42;;;6.63;;
79023;SDS011;70306;44.764;37.688;2023-12-04T00:39:25;40.80;;;7.20;;
79023;SDS011;70306;44.764;37.688;2023-12-04T00:40:27;41.72;;;6.28;;
79023;SDS011;70306;44.764;37.688;2023-12-04T00:41:28;55.88;;;7.50;;
79023;SDS011;70306;44.764;37.688;2023-12-04T00:42:30;33.50;;;6.55;;
79023;SDS011;70306;44.764;37.688;2023-12-04T00:43:32;46.63;;;8.18;;
79023;SDS011;70306;44.764;37.688;2023-12-04T00:44:34;80.43;;;9.65;;
79023;SDS011;70306;44.764;37.688;2023-12-04T00:45:36;17.70;;;5.28;;
79023;SDS011;70306;44.764;37.688;2023-12-04T00:46:38;32.60;;;6.28;;
79023;SDS011;70306;44.764;37.688;2023-12-04T00:47:39;49.90;;;7.57;;
79023;SDS011;70306;44.764;37.688;2023-12-04T00:48:41;40.70;;;8.18;;
79023;SDS011;70306;44.764;37.688;2023-12-04T00:49:43;21.77;;;5.85;;
79023;SDS011;70306;44.764;37.688;2023-12-04T00:50:45;68.03;;;9.32;;
79023;SDS011;70306;44.764;37.688;2023-12-04T00:51:46;63.63;;;9.75;;
79023;SDS011;70306;44.764;37.688;2023-12-04T00:52:48;53.28;;;7.47;;
79023;SDS011;70306;44.764;37.688;2023-12-04T00:53:50;86.28;;;10.57;;
79023;SDS011;70306;44.764;37.688;2023-12-04T00:54:51;62.00;;;7.82;;
79023;SDS011;70306;44.764;37.688;2023-12-04T00:55:54;41.03;;;6.40;;
79023;SDS011;70306;44.764;37.688;2023-12-04T00:56:56;26.75;;;6.20;;
79023;SDS011;70306;44.764;37.688;2023-12-04T00:57:58;14.50;;;4.72;;
79023;SDS011;70306;44.764;37.688;2023-12-04T00:58:59;11.40;;;4.80;;
79023;SDS011;70306;44.764;37.688;2023-12-04T01:00:01;13.02;;;5.05;;
79023;SDS011;70306;44.764;37.688;2023-12-04T01:01:04;14.70;;;5.15;;
79023;SDS011;70306;44.764;37.688;2023-12-04T01:02:06;25.55;;;6.75;;
79023;SDS011;70306;44.764;37.688;2023-12-04T01:03:08;32.70;;;6.72;;
79023;SDS011;70306;44.764;37.688;2023-12-04T01:04:10;15.60;;;5.18;;
79023;SDS011;70306;44.764;37.688;2023-12-04T01:05:12;12.60;;;5.18;;
79023;SDS011;70306;44.764;37.688;2023-12-04T01:06:20;20.83;;;5.50;;
79023;SDS011;70306;44.764;37.688;2023-12-04T01:07:24;17.63;;;6.18;;
79023;SDS011;70306;44.764;37.688;2023-12-04T01:08:26;16.98;;;4.70;;
79023;SDS011;70306;44.764;37.688;2023-12-04T01:09:28;20.75;;;5.47;;
79023;SDS011;70306;44.764;37.688;2023-12-04T01:10:29;15.00;;;5.30;;
79023;SDS011;70306;44.764;37.688;2023-12-04T01:11:31;24.15;;;6.20;;
79023;SDS011;70306;44.764;37.688;2023-12-04T01:12:33;17.98;;;5.07;;
79023;SDS011;70306;44.764;37.688;2023-12-04T01:13:35;15.73;;;6.00;;
79023;SDS011;70306;44.764;37.688;2023-12-04T01:14:36;22.73;;;6.88;;
79023;SDS011;70306;44.764;37.688;2023-12-04T01:15:39;16.05;;;5.68;;
79023;SDS011;70306;44.764;37.688;2023-12-04T01:16:41;12.88;;;5.10;;
79023;SDS011;70306;44.764;37.688;2023-12-04T01:17:43;12.88;;;4.82;;
79023;SDS011;70306;44.764;37.688;2023-12-04T01:18:45;14.77;;;5.05;;
79023;SDS011;70306;44.764;37.688;2023-12-04T01:19:47;13.90;;;5.13;;
79023;SDS011;70306;44.764;37.688;2023-12-04T01:20:48;14.15;;;5.32;;
79023;SDS011;70306;44.764;37.688;2023-12-04T01:21:50;12.80;;;5.07;;
79023;SDS011;70306;44.764;37.688;2023-12-04T01:22:52;11.25;;;4.32;;
79023;SDS011;70306;44.764;37.688;2023-12-04T01:23:54;14.82;;;5.50;;
79023;SDS011;70306;44.764;37.688;2023-12-04T01:24:55;13.50;;;4.97;;
79023;SDS011;70306;44.764;37.688;2023-12-04T01:25:57;12.23;;;5.28;;
79023;SDS011;70306;44.764;37.688;2023-12-04T01:26:59;22.42;;;6.35;;
79023;SDS011;70306;44.764;37.688;2023-12-04T01:28:01;17.70;;;5.75;;
79023;SDS011;70306;44.764;37.688;2023-12-04T01:29:02;25.60;;;6.13;;
79023;SDS011;70306;44.764;37.688;2023-12-04T01:30:05;19.33;;;5.68;;
79023;SDS011;70306;44.764;37.688;2023-12-04T01:31:09;21.60;;;6.22;;
79023;SDS011;70306;44.764;37.688;2023-12-04T01:32:11;19.38;;;5.85;;
79023;SDS011;70306;44.764;37.688;2023-12-04T01:33:13;13.57;;;5.63;;
79023;SDS011;70306;44.764;37.688;2023-12-04T01:34:15;28.38;;;6.13;;
79023;SDS011;70306;44.764;37.688;2023-12-04T01:35:16;17.23;;;6.38;;
79023;SDS011;70306;44.764;37.688;2023-12-04T01:36:18;23.65;;;6.25;;
79023;SDS011;70306;44.764;37.688;2023-12-04T01:37:20;20.85;;;6.43;;
79023;SDS011;70306;44.764;37.688;2023-12-04T01:38:22;27.77;;;6.18;;
79023;SDS011;70306;44.764;37.688;2023-12-04T01:39:23;17.50;;;5.93;;
79023;SDS011;70306;44.764;37.688;2023-12-04T01:40:26;29.92;;;6.65;;
79023;SDS011;70306;44.764;37.688;2023-12-04T01:41:28;42.80;;;9.00;;
79023;SDS011;70306;44.764;37.688;2023-12-04T01:42:30;30.58;;;6.78;;
79023;SDS011;70306;44.764;37.688;2023-12-04T01:43:31;21.52;;;6.75;;
79023;SDS011;70306;44.764;37.688;2023-12-04T01:44:33;22.45;;;6.88;;
79023;SDS011;70306;44.764;37.688;2023-12-04T01:45:35;59.70;;;10.18;;
79023;SDS011;70306;44.764;37.688;2023-12-04T01:46:37;54.90;;;10.10;;
79023;SDS011;70306;44.764;37.688;2023-12-04T01:47:39;77.53;;;12.00;;
79023;SDS011;70306;44.764;37.688;2023-12-04T01:48:40;40.00;;;9.93;;
79023;SDS011;70306;44.764;37.688;2023-12-04T01:49:42;44.83;;;8.57;;
79023;SDS011;70306;44.764;37.688;2023-12-04T01:50:44;31.25;;;7.63;;
79023;SDS011;70306;44.764;37.688;2023-12-04T01:51:46;37.35;;;7.75;;
79023;SDS011;70306;44.764;37.688;2023-12-04T01:52:48;22.08;;;6.45;;
79023;SDS011;70306;44.764;37.688;2023-12-04T01:53:51;28.42;;;7.32;;
79023;SDS011;70306;44.764;37.688;2023-12-04T01:54:54;22.83;;;8.77;;
79023;SDS011;70306;44.764;37.688;2023-12-04T01:55:56;29.58;;;6.78;;
79023;SDS011;70306;44.764;37.688;2023-12-04T01:56:57;30.25;;;8.02;;
79023;SDS011;70306;44.764;37.688;2023-12-04T01:58:00;28.05;;;6.68;;
79023;SDS011;70306;44.764;37.688;2023-12-04T01:59:04;17.33;;;6.88;;
79023;SDS011;70306;44.764;37.688;2023-12-04T02:00:06;22.33;;;6.82;;
79023;SDS011;70306;44.764;37.688;2023-12-04T02:01:13;17.67;;;6.95;;
79023;SDS011;70306;44.764;37.688;2023-12-04T02:02:15;18.35;;;6.45;;
79023;SDS011;70306;44.764;37.688;2023-12-04T02:03:17;18.23;;;6.60;;
79023;SDS011;70306;44.764;37.688;2023-12-04T02:04:19;14.52;;;6.32;;
79023;SDS011;70306;44.764;37.688;2023-12-04T02:05:22;18.05;;;7.07;;
79023;SDS011;70306;44.764;37.688;2023-12-04T02:06:24;17.75;;;6.68;;
79023;SDS011;70306;44.764;37.688;2023-12-04T02:07:26;20.42;;;6.30;;
79023;SDS011;70306;44.764;37.688;2023-12-04T02:08:28;18.65;;;6.93;;
79023;SDS011;70306;44.764;37.688;2023-12-04T02:09:30;13.43;;;5.82;;
79023;SDS011;70306;44.764;37.688;2023-12-04T02:10:32;14.95;;;6.30;;
79023;SDS011;70306;44.764;37.688;2023-12-04T02:11:34;15.88;;;5.93;;
79023;SDS011;70306;44.764;37.688;2023-12-04T02:12:35;13.38;;;6.22;;
79023;SDS011;70306;44.764;37.688;2023-12-04T02:13:38;15.60;;;6.65;;
79023;SDS011;70306;44.764;37.688;2023-12-04T02:14:40;12.40;;;5.72;;
79023;SDS011;70306;44.764;37.688;2023-12-04T02:15:42;16.88;;;6.38;;
79023;SDS011;70306;44.764;37.688;2023-12-04T02:16:46;21.77;;;6.72;;
79023;SDS011;70306;44.764;37.688;2023-12-04T02:17:49;15.70;;;6.65;;
79023;SDS011;70306;44.764;37.688;2023-12-04T02:18:51;21.98;;;6.68;;
79023;SDS011;70306;44.764;37.688;2023-12-04T02:19:53;12.65;;;6.15;;
79023;SDS011;70306;44.764;37.688;2023-12-04T02:20:55;14.57;;;5.53;;
79023;SDS011;70306;44.764;37.688;2023-12-04T02:21:57;10.88;;;5.18;;
79023;SDS011;70306;44.764;37.688;2023-12-04T02:22:59;13.35;;;5.78;;
79023;SDS011;70306;44.764;37.688;2023-12-04T02:24:04;17.70;;;6.38;;
79023;SDS011;70306;44.764;37.688;2023-12-04T02:25:06;20.48;;;6.20;;
79023;SDS011;70306;44.764;37.688;2023-12-04T02:26:10;14.73;;;5.45;;
79023;SDS011;70306;44.764;37.688;2023-12-04T02:28:20;15.77;;;6.28;;
79023;SDS011;70306;44.764;37.688;2023-12-04T02:29:41;12.45;;;5.10;;
79023;SDS011;70306;44.764;37.688;2023-12-04T02:31:05;14.85;;;7.35;;
79023;SDS011;70306;44.764;37.688;2023-12-04T02:32:10;22.08;;;5.78;;
79023;SDS011;70306;44.764;37.688;2023-12-04T02:33:16;18.27;;;5.72;;
79023;SDS011;70306;44.764;37.688;2023-12-04T02:34:19;30.30;;;6.03;;
79023;SDS011;70306;44.764;37.688;2023-12-04T02:35:22;13.60;;;6.63;;
79023;SDS011;70306;44.764;37.688;2023-12-04T02:36:25;23.73;;;6.53;;
79023;SDS011;70306;44.764;37.688;2023-12-04T02:37:28;24.13;;;6.35;;
79023;SDS011;70306;44.764;37.688;2023-12-04T02:38:30;21.95;;;7.35;;
79023;SDS011;70306;44.764;37.688;2023-12-04T02:39:32;25.55;;;7.03;;
79023;SDS011;70306;44.764;37.688;2023-12-04T02:40:33;19.20;;;5.75;;
79023;SDS011;70306;44.764;37.688;2023-12-04T02:41:36;25.35;;;6.03;;
79023;SDS011;70306;44.764;37.688;2023-12-04T02:42:38;15.63;;;6.13;;
79023;SDS011;70306;44.764;37.688;2023-12-04T02:43:39;23.33;;;6.65;;
79023;SDS011;70306;44.764;37.688;2023-12-04T02:44:41;31.70;;;7.93;;
79023;SDS011;70306;44.764;37.688;2023-12-04T02:45:43;22.92;;;6.75;;
79023;SDS011;70306;44.764;37.688;2023-12-04T02:46:44;23.23;;;7.28;;
79023;SDS011;70306;44.764;37.688;2023-12-04T02:47:46;17.75;;;6.13;;
79023;SDS011;70306;44.764;37.688;2023-12-04T02:48:48;55.33;;;9.05;;
79023;SDS011;70306;44.764;37.688;2023-12-04T02:49:50;28.58;;;7.90;;
79023;SDS011;70306;44.764;37.688;2023-12-04T02:50:52;28.60;;;7.63;;
79023;SDS011;70306;44.764;37.688;2023-12-04T02:51:54;48.08;;;8.75;;
79023;SDS011;70306;44.764;37.688;2023-12-04T02:52:55;18.70;;;6.30;;
79023;SDS011;70306;44.764;37.688;2023-12-04T02:53:57;111.38;;;13.93;;
79023;SDS011;70306;44.764;37.688;2023-12-04T02:54:59;93.07;;;14.80;;
79023;SDS011;70306;44.764;37.688;2023-12-04T02:56:02;140.10;;;14.73;;
79023;SDS011;70306;44.764;37.688;2023-12-04T02:57:05;47.90;;;7.93;;
79023;SDS011;70306;44.764;37.688;2023-12-04T02:58:07;32.10;;;7.05;;
79023;SDS011;70306;44.764;37.688;2023-12-04T02:59:08;45.05;;;7.88;;
79023;SDS011;70306;44.764;37.688;2023-12-04T03:00:10;54.00;;;7.68;;
79023;SDS011;70306;44.764;37.688;2023-12-04T03:01:12;16.60;;;6.05;;
79023;SDS011;70306;44.764;37.688;2023-12-04T03:02:14;66.60;;;10.48;;
79023;SDS011;70306;44.764;37.688;2023-12-04T03:03:16;26.25;;;6.38;;
79023;SDS011;70306;44.764;37.688;2023-12-04T03:04:20;34.53;;;6.78;;
79023;SDS011;70306;44.764;37.688;2023-12-04T03:05:22;31.17;;;7.28;;
79023;SDS011;70306;44.764;37.688;2023-12-04T03:06:24;36.45;;;7.47;;
79023;SDS011;70306;44.764;37.688;2023-12-04T03:07:25;46.30;;;8.63;;
79023;SDS011;70306;44.764;37.688;2023-12-04T03:08:28;38.20;;;7.30;;
79023;SDS011;70306;44.764;37.688;2023-12-04T03:09:30;24.95;;;7.05;;
79023;SDS011;70306;44.764;37.688;2023-12-04T03:10:31;29.33;;;6.78;;
79023;SDS011;70306;44.764;37.688;2023-12-04T03:11:33;25.92;;;6.30;;
79023;SDS011;70306;44.764;37.688;2023-12-04T03:12:35;24.75;;;7.25;;
79023;SDS011;70306;44.764;37.688;2023-12-04T03:13:37;23.65;;;6.75;;
79023;SDS011;70306;44.764;37.688;2023-12-04T03:14:38;26.73;;;7.15;;
79023;SDS011;70306;44.764;37.688;2023-12-04T03:15:40;42.55;;;6.25;;
79023;SDS011;70306;44.764;37.688;2023-12-04T03:16:42;19.65;;;6.43;;
79023;SDS011;70306;44.764;37.688;2023-12-04T03:17:44;32.22;;;6.53;;
79023;SDS011;70306;44.764;37.688;2023-12-04T03:18:46;21.08;;;6.15;;
79023;SDS011;70306;44.764;37.688;2023-12-04T03:19:47;22.27;;;6.70;;
79023;SDS011;70306;44.764;37.688;2023-12-04T03:20:49;24.05;;;6.28;;
79023;SDS011;70306;44.764;37.688;2023-12-04T03:21:51;18.88;;;6.15;;
79023;SDS011;70306;44.764;37.688;2023-12-04T03:22:53;15.93;;;6.22;;
79023;SDS011;70306;44.764;37.688;2023-12-04T03:23:55;21.60;;;6.57;;
79023;SDS011;70306;44.764;37.688;2023-12-04T03:24:56;23.25;;;6.95;;
79023;SDS011;70306;44.764;37.688;2023-12-04T03:25:58;16.70;;;6.20;;
79023;SDS011;70306;44.764;37.688;2023-12-04T03:27:00;21.55;;;6.85;;
79023;SDS011;70306;44.764;37.688;2023-12-04T03:28:05;13.32;;;6.57;;
79023;SDS011;70306;44.764;37.688;2023-12-04T03:29:06;14.60;;;7.07;;
79023;SDS011;70306;44.764;37.688;2023-12-04T03:30:08;12.68;;;6.68;;
79023;SDS011;70306;44.764;37.688;2023-12-04T03:31:11;15.98;;;6.15;;
79023;SDS011;70306;44.764;37.688;2023-12-04T03:32:15;21.85;;;6.97;;
79023;SDS011;70306;44.764;37.688;2023-12-04T03:33:17;64.07;;;9.85;;
79023;SDS011;70306;44.764;37.688;2023-12-04T03:34:19;35.00;;;7.05;;
79023;SDS011;70306;44.764;37.688;2023-12-04T03:35:21;40.03;;;7.43;;
79023;SDS011;70306;44.764;37.688;2023-12-04T03:36:23;18.90;;;6.65;;
79023;SDS011;70306;44.764;37.688;2023-12-04T03:37:24;20.83;;;6.68;;
79023;SDS011;70306;44.764;37.688;2023-12-04T03:38:48;20.73;;;6.63;;
79023;SDS011;70306;44.764;37.688;2023-12-04T03:39:52;29.67;;;6.55;;
79023;SDS011;70306;44.764;37.688;2023-12-04T03:40:54;19.08;;;6.13;;
79023;SDS011;70306;44.764;37.688;2023-12-04T03:41:56;22.38;;;5.85;;
79023;SDS011;70306;44.764;37.688;2023-12-04T03:42:57;20.92;;;5.85;;
79023;SDS011;70306;44.764;37.688;2023-12-04T03:43:59;19.45;;;6.88;;
79023;SDS011;70306;44.764;37.688;2023-12-04T03:45:01;16.48;;;5.28;;
79023;SDS011;70306;44.764;37.688;2023-12-04T03:46:03;12.95;;;5.18;;
79023;SDS011;70306;44.764;37.688;2023-12-04T03:47:05;22.98;;;8.27;;
79023;SDS011;70306;44.764;37.688;2023-12-04T03:48:07;15.93;;;5.70;;
79023;SDS011;70306;44.764;37.688;2023-12-04T03:49:09;15.30;;;6.03;;
79023;SDS011;70306;44.764;37.688;2023-12-04T03:50:11;17.05;;;5.97;;
79023;SDS011;70306;44.764;37.688;2023-12-04T03:51:13;19.23;;;6.68;;
79023;SDS011;70306;44.764;37.688;2023-12-04T03:52:15;20.63;;;8.05;;
79023;SDS011;70306;44.764;37.688;2023-12-04T03:53:16;13.50;;;7.10;;
79023;SDS011;70306;44.764;37.688;2023-12-04T03:54:21;17.38;;;6.10;;
79023;SDS011;70306;44.764;37.688;2023-12-04T03:55:23;20.00;;;7.43;;
79023;SDS011;70306;44.764;37.688;2023-12-04T03:56:24;17.17;;;6.45;;
79023;SDS011;70306;44.764;37.688;2023-12-04T03:57:26;15.73;;;6.10;;
79023;SDS011;70306;44.764;37.688;2023-12-04T03:58:28;20.35;;;6.90;;
79023;SDS011;70306;44.764;37.688;2023-12-04T03:59:30;16.02;;;6.75;;
79023;SDS011;70306;44.764;37.688;2023-12-04T04:00:31;17.50;;;6.70;;
79023;SDS011;70306;44.764;37.688;2023-12-04T04:01:33;18.20;;;6.65;;
79023;SDS011;70306;44.764;37.688;2023-12-04T04:02:35;15.18;;;6.40;;
79023;SDS011;70306;44.764;37.688;2023-12-04T04:03:37;15.15;;;6.25;;
79023;SDS011;70306;44.764;37.688;2023-12-04T04:04:38;16.80;;;5.60;;
79023;SDS011;70306;44.764;37.688;2023-12-04T04:05:40;14.48;;;6.03;;
79023;SDS011;70306;44.764;37.688;2023-12-04T04:06:42;15.70;;;5.47;;
79023;SDS011;70306;44.764;37.688;2023-12-04T04:07:44;17.73;;;6.28;;
79023;SDS011;70306;44.764;37.688;2023-12-04T04:08:46;16.05;;;6.00;;
79023;SDS011;70306;44.764;37.688;2023-12-04T04:09:47;28.23;;;7.20;;
79023;SDS011;70306;44.764;37.688;2023-12-04T04:10:49;17.27;;;5.63;;
79023;SDS011;70306;44.764;37.688;2023-12-04T04:11:51;27.17;;;6.72;;
79023;SDS011;70306;44.764;37.688;2023-12-04T04:12:52;25.15;;;8.00;;
79023;SDS011;70306;44.764;37.688;2023-12-04T04:13:54;29.00;;;6.65;;
79023;SDS011;70306;44.764;37.688;2023-12-04T04:14:56;28.65;;;7.25;;
79023;SDS011;70306;44.764;37.688;2023-12-04T04:15:58;32.40;;;8.85;;
79023;SDS011;70306;44.764;37.688;2023-12-04T04:17:00;62.08;;;10.40;;
79023;SDS011;70306;44.764;37.688;2023-12-04T04:18:02;51.35;;;8.13;;
79023;SDS011;70306;44.764;37.688;2023-12-04T04:19:04;19.77;;;6.55;;
79023;SDS011;70306;44.764;37.688;2023-12-04T04:20:07;38.78;;;7.90;;
79023;SDS011;70306;44.764;37.688;2023-12-04T04:21:09;29.95;;;6.57;;
79023;SDS011;70306;44.764;37.688;2023-12-04T04:22:11;18.60;;;6.55;;
79023;SDS011;70306;44.764;37.688;2023-12-04T04:23:13;25.83;;;6.60;;
79023;SDS011;70306;44.764;37.688;2023-12-04T04:24:15;27.38;;;7.18;;
79023;SDS011;70306;44.764;37.688;2023-12-04T04:25:16;32.50;;;7.63;;
79023;SDS011;70306;44.764;37.688;2023-12-04T04:26:19;29.33;;;7.85;;
79023;SDS011;70306;44.764;37.688;2023-12-04T04:27:21;19.88;;;7.53;;
79023;SDS011;70306;44.764;37.688;2023-12-04T04:28:23;16.90;;;7.65;;
79023;SDS011;70306;44.764;37.688;2023-12-04T04:29:24;29.33;;;8.75;;
79023;SDS011;70306;44.764;37.688;2023-12-04T04:30:26;21.35;;;8.70;;
79023;SDS011;70306;44.764;37.688;2023-12-04T04:31:29;27.30;;;10.05;;
79023;SDS011;70306;44.764;37.688;2023-12-04T04:32:30;24.92;;;9.57;;
79023;SDS011;70306;44.764;37.688;2023-12-04T04:33:32;24.73;;;9.43;;
79023;SDS011;70306;44.764;37.688;2023-12-04T04:34:34;23.90;;;10.32;;
79023;SDS011;70306;44.764;37.688;2023-12-04T04:35:36;23.42;;;9.13;;
79023;SDS011;70306;44.764;37.688;2023-12-04T04:36:37;20.88;;;8.35;;
79023;SDS011;70306;44.764;37.688;2023-12-04T04:37:39;20.55;;;9.52;;
79023;SDS011;70306;44.764;37.688;2023-12-04T04:38:41;24.55;;;9.73;;
79023;SDS011;70306;44.764;37.688;2023-12-04T04:39:43;25.30;;;9.48;;
79023;SDS011;70306;44.764;37.688;2023-12-04T04:40:45;25.02;;;9.07;;
79023;SDS011;70306;44.764;37.688;2023-12-04T04:41:46;104.25;;;14.88;;
79023;SDS011;70306;44.764;37.688;2023-12-04T04:42:48;32.03;;;9.27;;
79023;SDS011;70306;44.764;37.688;2023-12-04T04:43:50;28.08;;;9.52;;
79023;SDS011;70306;44.764;37.688;2023-12-04T04:44:52;45.58;;;10.52;;
79023;SDS011;70306;44.764;37.688;2023-12-04T04:45:54;24.88;;;8.77;;
79023;SDS011;70306;44.764;37.688;2023-12-04T04:46:55;21.02;;;8.57;;
79023;SDS011;70306;44.764;37.688;2023-12-04T04:47:57;23.17;;;9.07;;
79023;SDS011;70306;44.764;37.688;2023-12-04T04:48:59;22.17;;;9.75;;
79023;SDS011;70306;44.764;37.688;2023-12-04T04:50:01;32.30;;;11.50;;
79023;SDS011;70306;44.764;37.688;2023-12-04T04:51:03;45.28;;;12.75;;
79023;SDS011;70306;44.764;37.688;2023-12-04T04:52:05;39.65;;;11.30;;
79023;SDS011;70306;44.764;37.688;2023-12-04T04:53:06;20.95;;;10.13;;
79023;SDS011;70306;44.764;37.688;2023-12-04T04:54:08;32.15;;;11.25;;
79023;SDS011;70306;44.764;37.688;2023-12-04T04:55:10;24.58;;;10.85;;
79023;SDS011;70306;44.764;37.688;2023-12-04T04:56:11;34.78;;;10.93;;
79023;SDS011;70306;44.764;37.688;2023-12-04T04:57:13;20.25;;;9.10;;
79023;SDS011;70306;44.764;37.688;2023-12-04T04:58:15;34.70;;;13.20;;
79023;SDS011;70306;44.764;37.688;2023-12-04T04:59:18;22.33;;;9.13;;
79023;SDS011;70306;44.764;37.688;2023-12-04T05:00:19;15.07;;;9.00;;
79023;SDS011;70306;44.764;37.688;2023-12-04T05:01:21;23.52;;;9.63;;
79023;SDS011;70306;44.764;37.688;2023-12-04T05:02:23;15.13;;;9.00;;
79023;SDS011;70306;44.764;37.688;2023-12-04T05:03:25;15.35;;;8.10;;
79023;SDS011;70306;44.764;37.688;2023-12-04T05:04:27;21.27;;;9.70;;
79023;SDS011;70306;44.764;37.688;2023-12-04T05:05:28;21.77;;;8.65;;
79023;SDS011;70306;44.764;37.688;2023-12-04T05:06:30;22.98;;;10.00;;
79023;SDS011;70306;44.764;37.688;2023-12-04T05:07:32;50.17;;;11.38;;
79023;SDS011;70306;44.764;37.688;2023-12-04T05:08:34;16.60;;;9.20;;
79023;SDS011;70306;44.764;37.688;2023-12-04T05:09:36;55.85;;;12.15;;
79023;SDS011;70306;44.764;37.688;2023-12-04T05:10:38;18.05;;;8.40;;
79023;SDS011;70306;44.764;37.688;2023-12-04T05:11:40;35.20;;;9.57;;
79023;SDS011;70306;44.764;37.688;2023-12-04T05:12:42;24.50;;;9.70;;
79023;SDS011;70306;44.764;37.688;2023-12-04T05:13:46;20.45;;;9.30;;
79023;SDS011;70306;44.764;37.688;2023-12-04T05:14:48;16.65;;;8.55;;
79023;SDS011;70306;44.764;37.688;2023-12-04T05:15:50;21.77;;;9.93;;
79023;SDS011;70306;44.764;37.688;2023-12-04T05:16:52;20.23;;;9.27;;
79023;SDS011;70306;44.764;37.688;2023-12-04T05:17:54;18.85;;;9.80;;
79023;SDS011;70306;44.764;37.688;2023-12-04T05:18:56;42.40;;;11.48;;
79023;SDS011;70306;44.764;37.688;2023-12-04T05:19:58;15.00;;;8.35;;
79023;SDS011;70306;44.764;37.688;2023-12-04T05:21:00;68.05;;;14.90;;
79023;SDS011;70306;44.764;37.688;2023-12-04T05:22:01;32.05;;;10.45;;
79023;SDS011;70306;44.764;37.688;2023-12-04T05:23:03;288.02;;;30.27;;
79023;SDS011;70306;44.764;37.688;2023-12-04T05:24:05;77.75;;;30.85;;
79023;SDS011;70306;44.764;37.688;2023-12-04T05:25:07;32.95;;;13.10;;
79023;SDS011;70306;44.764;37.688;2023-12-04T05:26:09;73.45;;;16.67;;
79023;SDS011;70306;44.764;37.688;2023-12-04T05:27:10;38.00;;;12.80;;
79023;SDS011;70306;44.764;37.688;2023-12-04T05:28:12;56.72;;;12.27;;
79023;SDS011;70306;44.764;37.688;2023-12-04T05:29:14;56.28;;;12.63;;
79023;SDS011;70306;44.764;37.688;2023-12-04T05:30:16;62.70;;;14.52;;
79023;SDS011;70306;44.764;37.688;2023-12-04T05:31:18;53.55;;;14.48;;
79023;SDS011;70306;44.764;37.688;2023-12-04T05:32:19;50.85;;;11.70;;
79023;SDS011;70306;44.764;37.688;2023-12-04T05:33:21;42.72;;;12.52;;
79023;SDS011;70306;44.764;37.688;2023-12-04T05:34:23;36.00;;;10.38;;
79023;SDS011;70306;44.764;37.688;2023-12-04T05:35:25;16.55;;;8.32;;
79023;SDS011;70306;44.764;37.688;2023-12-04T05:36:27;19.50;;;9.48;;
79023;SDS011;70306;44.764;37.688;2023-12-04T05:37:29;38.70;;;11.52;;
79023;SDS011;70306;44.764;37.688;2023-12-04T05:38:30;19.33;;;9.43;;
79023;SDS011;70306;44.764;37.688;2023-12-04T05:39:32;20.80;;;9.02;;
79023;SDS011;70306;44.764;37.688;2023-12-04T05:40:34;18.65;;;10.20;;
79023;SDS011;70306;44.764;37.688;2023-12-04T05:41:36;14.65;;;9.20;;
79023;SDS011;70306;44.764;37.688;2023-12-04T05:42:37;22.48;;;9.75;;
79023;SDS011;70306;44.764;37.688;2023-12-04T05:43:39;26.92;;;9.68;;
79023;SDS011;70306;44.764;37.688;2023-12-04T05:44:41;15.73;;;9.40;;
79023;SDS011;70306;44.764;37.688;2023-12-04T05:45:43;21.15;;;10.05;;
79023;SDS011;70306;44.764;37.688;2023-12-04T05:46:44;24.80;;;10.18;;
79023;SDS011;70306;44.764;37.688;2023-12-04T05:47:46;18.10;;;9.38;;
79023;SDS011;70306;44.764;37.688;2023-12-04T05:48:48;15.57;;;8.73;;
79023;SDS011;70306;44.764;37.688;2023-12-04T05:49:50;13.00;;;9.00;;
79023;SDS011;70306;44.764;37.688;2023-12-04T05:50:52;16.15;;;7.97;;
79023;SDS011;70306;44.764;37.688;2023-12-04T05:51:53;13.27;;;8.68;;
79023;SDS011;70306;44.764;37.688;2023-12-04T05:52:55;14.30;;;7.90;;
79023;SDS011;70306;44.764;37.688;2023-12-04T05:53:57;21.83;;;9.52;;
79023;SDS011;70306;44.764;37.688;2023-12-04T05:54:59;22.02;;;9.10;;
79023;SDS011;70306;44.764;37.688;2023-12-04T05:56:00;17.27;;;8.00;;
79023;SDS011;70306;44.764;37.688;2023-12-04T05:57:02;13.50;;;7.97;;
79023;SDS011;70306;44.764;37.688;2023-12-04T05:58:04;10.98;;;7.00;;
79023;SDS011;70306;44.764;37.688;2023-12-04T05:59:06;14.80;;;8.05;;
79023;SDS011;70306;44.764;37.688;2023-12-04T06:00:08;14.70;;;7.90;;
79023;SDS011;70306;44.764;37.688;2023-12-04T06:01:14;13.95;;;9.18;;
79023;SDS011;70306;44.764;37.688;2023-12-04T06:02:16;12.35;;;8.40;;
79023;SDS011;70306;44.764;37.688;2023-12-04T06:03:18;17.20;;;7.63;;
79023;SDS011;70306;44.764;37.688;2023-12-04T06:04:20;10.43;;;7.45;;
79023;SDS011;70306;44.764;37.688;2023-12-04T06:05:21;19.73;;;7.75;;
79023;SDS011;70306;44.764;37.688;2023-12-04T06:06:24;13.07;;;7.78;;
79023;SDS011;70306;44.764;37.688;2023-12-04T06:07:26;17.25;;;7.72;;
79023;SDS011;70306;44.764;37.688;2023-12-04T06:08:28;11.40;;;7.55;;
79023;SDS011;70306;44.764;37.688;2023-12-04T06:09:30;12.68;;;7.53;;